createdAt,value
2019-05-20T00:00:50.002Z,89.70
2019-05-20T00:03:18.432Z,89.70
2019-05-20T00:05:47.256Z,89.60
2019-05-20T00:08:15.882Z,89.40
2019-05-20T00:10:44.870Z,89.00
2019-05-20T00:13:13.293Z,88.80
2019-05-20T00:15:41.743Z,88.50
2019-05-20T00:18:10.162Z,88.00
2019-05-20T00:20:38.678Z,87.60
2019-05-20T00:23:07.105Z,87.30
2019-05-20T00:25:35.554Z,87.00
2019-05-20T00:28:05.508Z,86.70
2019-05-20T00:30:34.025Z,86.80
2019-05-20T00:33:02.462Z,86.90
2019-05-20T00:35:30.890Z,86.90
2019-05-20T00:37:59.338Z,87.00
2019-05-20T00:40:27.921Z,87.00
2019-05-20T00:42:57.890Z,86.90
2019-05-20T00:45:26.343Z,87.00
2019-05-20T00:47:54.762Z,87.10
2019-05-20T00:50:23.195Z,87.30
2019-05-20T00:52:51.782Z,87.50
2019-05-20T00:55:26.312Z,87.30
2019-05-20T00:57:54.819Z,87.30
2019-05-20T01:00:23.982Z,87.30
2019-05-20T01:02:56.888Z,87.50
2019-05-20T01:05:23.036Z,87.50
2019-05-20T01:07:51.478Z,87.60
2019-05-20T01:10:20.091Z,87.60
2019-05-20T01:12:48.531Z,87.40
2019-05-20T01:15:17.301Z,87.30
2019-05-20T01:17:45.818Z,87.10
2019-05-20T01:20:14.779Z,87.00
2019-05-20T01:22:43.239Z,86.90
2019-05-20T01:25:12.606Z,86.90
2019-05-20T01:27:41.063Z,87.20
2019-05-20T01:30:10.134Z,87.40
2019-05-20T01:32:40.127Z,87.60
2019-05-20T01:35:08.794Z,87.70
2019-05-20T01:37:37.254Z,88.10
2019-05-20T01:40:06.051Z,88.10
2019-05-20T01:42:34.506Z,87.80
2019-05-20T01:45:03.063Z,87.30
2019-05-20T01:47:31.519Z,87.20
2019-05-20T01:49:59.951Z,87.40
2019-05-20T01:52:28.458Z,87.30
2019-05-20T01:54:56.899Z,87.10
2019-05-20T01:57:25.367Z,86.60
2019-05-20T01:59:53.863Z,86.30
2019-05-20T02:02:22.379Z,86.30
2019-05-20T02:04:50.853Z,86.40
2019-05-20T02:07:19.346Z,86.30
2019-05-20T02:09:48.029Z,86.10
2019-05-20T02:12:16.535Z,86.20
2019-05-20T02:14:58.562Z,86.10
2019-05-20T02:17:26.995Z,86.20
2019-05-20T02:19:55.535Z,86.20
2019-05-20T02:22:23.967Z,86.10
2019-05-20T02:24:52.414Z,85.90
2019-05-20T02:27:20.835Z,85.80
2019-05-20T02:29:49.282Z,85.60
2019-05-20T02:32:17.711Z,85.20
2019-05-20T02:34:47.467Z,84.50
2019-05-20T02:37:15.889Z,84.20
2019-05-20T02:39:44.390Z,84.30
2019-05-20T02:42:14.228Z,84.10
2019-05-20T02:44:42.663Z,83.50
2019-05-20T02:47:11.096Z,83.60
2019-05-20T02:49:39.542Z,83.40
2019-05-20T02:52:07.966Z,83.00
2019-05-20T02:54:36.422Z,83.40
2019-05-20T02:57:04.912Z,83.50
2019-05-20T02:59:33.453Z,83.50
2019-05-20T03:02:01.866Z,83.50
2019-05-20T03:04:30.286Z,83.30
2019-05-20T03:07:00.279Z,81.80
2019-05-20T03:09:28.722Z,80.40
2019-05-20T03:11:57.160Z,79.80
2019-05-20T03:14:27.220Z,78.90
2019-05-20T03:16:55.668Z,78.60
2019-05-20T03:19:24.083Z,78.10
2019-05-20T03:21:52.614Z,78.10
2019-05-20T03:24:21.106Z,77.90
2019-05-20T03:26:49.629Z,77.20
2019-05-20T03:29:18.124Z,77.20
2019-05-20T03:31:46.565Z,78.20
2019-05-20T03:34:42.204Z,79.10
2019-05-20T03:36:45.153Z,79.80
2019-05-20T03:39:13.570Z,79.90
2019-05-20T03:41:42.020Z,80.60
2019-05-20T03:44:10.447Z,80.80
2019-05-20T03:46:38.962Z,80.80
2019-05-20T03:49:07.392Z,81.50
2019-05-20T03:51:35.923Z,82.20
2019-05-20T03:54:04.486Z,82.50
2019-05-20T03:56:32.943Z,82.50
2019-05-20T03:59:01.354Z,81.80
2019-05-20T04:01:29.802Z,81.40
2019-05-20T04:03:58.232Z,80.60
2019-05-20T04:06:26.803Z,80.10
2019-05-20T04:08:56.882Z,79.90
2019-05-20T04:11:25.320Z,79.30
2019-05-20T04:13:53.765Z,79.30
2019-05-20T04:16:22.183Z,79.40
2019-05-20T04:18:53.981Z,79.60
2019-05-20T04:21:20.782Z,80.90
2019-05-20T04:23:49.392Z,81.10
2019-05-20T04:26:18.284Z,81.00
2019-05-20T04:28:46.728Z,81.50
2019-05-20T04:31:15.148Z,81.60
2019-05-20T04:33:44.192Z,81.50
2019-05-20T04:36:12.615Z,81.70
2019-05-20T04:38:41.078Z,81.50
2019-05-20T04:41:09.568Z,82.10
2019-05-20T04:43:38.024Z,82.00
2019-05-20T04:46:06.460Z,82.20
2019-05-20T04:48:36.437Z,82.30
2019-05-20T04:51:05.143Z,82.00
2019-05-20T04:53:33.671Z,81.80
2019-05-20T04:56:02.101Z,81.70
2019-05-20T04:58:30.553Z,81.60
2019-05-20T05:00:59.143Z,81.30
2019-05-20T05:03:27.675Z,81.30
2019-05-20T05:05:56.542Z,81.00
2019-05-20T05:08:25.268Z,81.20
2019-05-20T05:10:54.443Z,81.30
2019-05-20T05:13:23.509Z,80.60
2019-05-20T05:15:52.207Z,80.00
2019-05-20T05:18:21.074Z,80.00
2019-05-20T05:20:49.808Z,80.00
2019-05-20T05:23:18.672Z,79.10
2019-05-20T05:25:47.136Z,79.40
2019-05-20T05:28:15.691Z,78.80
2019-05-20T05:30:46.182Z,79.30
2019-05-20T05:33:14.615Z,78.40
2019-05-20T05:35:52.982Z,78.60
2019-05-20T05:38:13.432Z,78.60
2019-05-20T05:40:42.103Z,78.30
2019-05-20T05:43:10.541Z,77.70
2019-05-20T05:45:39.438Z,79.10
2019-05-20T05:48:07.980Z,79.70
2019-05-20T05:50:36.431Z,77.70
2019-05-20T05:53:05.032Z,78.20
2019-05-20T05:55:33.628Z,77.00
2019-05-20T05:58:02.119Z,75.70
2019-05-20T06:00:30.583Z,75.70
2019-05-20T06:02:59.026Z,71.70
2019-05-20T06:05:31.323Z,72.10
2019-05-20T06:07:57.699Z,71.10
2019-05-20T06:10:26.414Z,70.40
2019-05-20T06:12:54.901Z,70.30
2019-05-20T06:15:23.786Z,69.40
2019-05-20T06:17:52.211Z,70.00
2019-05-20T06:20:21.008Z,68.80
2019-05-20T06:22:49.449Z,68.60
2019-05-20T06:25:19.427Z,68.90
2019-05-20T06:27:47.862Z,70.10
2019-05-20T06:30:16.953Z,68.60
2019-05-20T06:32:45.455Z,69.50
2019-05-20T06:35:15.028Z,67.80
2019-05-20T06:37:45.658Z,69.10
2019-05-20T06:40:15.803Z,67.70
2019-05-20T06:42:44.434Z,67.70
2019-05-20T06:45:13.197Z,68.40
2019-05-20T06:47:41.851Z,70.50
2019-05-20T06:50:10.612Z,70.80
2019-05-20T06:52:39.059Z,71.00
2019-05-20T06:55:08.473Z,69.40
2019-05-20T06:57:37.057Z,69.00
2019-05-20T07:00:08.251Z,67.30
2019-05-20T07:02:36.695Z,66.20
2019-05-20T07:05:06.976Z,67.10
2019-05-20T07:07:35.503Z,66.80
2019-05-20T07:10:05.970Z,66.80
2019-05-20T07:12:41.219Z,68.10
2019-05-20T07:15:07.762Z,68.10
2019-05-20T07:17:36.346Z,65.90
2019-05-20T07:20:05.917Z,64.40
2019-05-20T07:22:34.513Z,64.10
2019-05-20T07:25:03.046Z,64.30
2019-05-20T07:27:31.594Z,63.60
2019-05-20T07:30:00.069Z,62.90
2019-05-20T07:32:28.519Z,62.50
2019-05-20T07:34:57.024Z,62.30
2019-05-20T07:37:25.589Z,62.70
2019-05-20T07:39:54.178Z,62.50
2019-05-20T07:42:22.613Z,61.90
2019-05-20T07:44:51.106Z,61.70
2019-05-20T07:47:20.277Z,62.80
2019-05-20T07:49:49.423Z,62.60
2019-05-20T07:52:20.123Z,61.60
2019-05-20T07:54:51.672Z,61.90
2019-05-20T07:57:23.505Z,60.70
2019-05-20T07:59:56.602Z,61.70
2019-05-20T08:02:26.962Z,59.10
2019-05-20T08:04:55.435Z,60.60
2019-05-20T08:07:29.710Z,60.90
2019-05-20T08:09:54.325Z,60.10
2019-05-20T08:12:22.827Z,61.50
2019-05-20T08:14:51.347Z,60.30
2019-05-20T08:17:19.845Z,60.00
2019-05-20T08:19:50.139Z,60.70
2019-05-20T08:22:18.567Z,58.40
2019-05-20T08:24:47.218Z,59.00
2019-05-20T08:27:15.784Z,60.60
2019-05-20T08:29:45.853Z,61.10
2019-05-20T08:32:14.295Z,60.00
2019-05-20T08:34:42.729Z,60.10
2019-05-20T08:37:12.939Z,60.00
2019-05-20T08:39:41.387Z,60.70
2019-05-20T08:42:10.841Z,60.70
2019-05-20T08:44:39.303Z,61.40
2019-05-20T08:47:07.725Z,60.90
2019-05-20T08:49:36.221Z,61.00
2019-05-20T08:52:04.859Z,61.60
2019-05-20T08:54:33.328Z,60.40
2019-05-20T08:57:01.854Z,60.80
2019-05-20T08:59:30.324Z,62.10
2019-05-20T09:01:58.850Z,62.00
2019-05-20T09:04:27.384Z,63.50
2019-05-20T09:06:55.832Z,66.50
2019-05-20T09:09:24.387Z,69.10
2019-05-20T09:11:53.043Z,69.20
2019-05-20T09:14:21.503Z,70.80
2019-05-20T09:16:50.089Z,71.40
2019-05-20T09:19:18.524Z,73.50
2019-05-20T09:21:46.983Z,72.60
2019-05-20T09:24:18.883Z,72.40
2019-05-20T09:26:45.576Z,69.50
2019-05-20T09:29:14.055Z,71.70
2019-05-20T09:31:42.853Z,70.20
2019-05-20T09:34:11.294Z,68.20
2019-05-20T09:36:39.865Z,68.60
2019-05-20T09:39:08.389Z,69.60
2019-05-20T09:41:36.845Z,64.40
2019-05-20T09:44:05.397Z,65.40
2019-05-20T09:46:33.851Z,64.30
2019-05-20T09:49:02.278Z,64.70
2019-05-20T09:51:30.804Z,61.10
2019-05-20T09:53:59.301Z,62.30
2019-05-20T09:56:27.795Z,63.60
2019-05-20T09:58:56.430Z,62.90
2019-05-20T10:01:25.013Z,63.70
2019-05-20T10:03:53.463Z,62.80
2019-05-20T10:06:21.969Z,61.70
2019-05-20T10:08:50.440Z,60.60
2019-05-20T10:11:19.104Z,59.10
2019-05-20T10:13:47.689Z,58.80
2019-05-20T10:16:16.174Z,60.70
2019-05-20T10:18:44.671Z,61.70
2019-05-20T10:21:13.095Z,61.50
2019-05-20T10:23:41.549Z,60.90
2019-05-20T10:26:09.966Z,61.50
2019-05-20T10:28:41.894Z,61.50
2019-05-20T10:31:08.632Z,60.90
2019-05-20T10:33:37.308Z,61.10
2019-05-20T10:36:05.873Z,60.10
2019-05-20T10:38:34.355Z,57.50
2019-05-20T10:41:02.848Z,58.30
2019-05-20T10:43:31.288Z,56.80
2019-05-20T10:45:59.772Z,59.20
2019-05-20T10:48:28.313Z,56.90
2019-05-20T10:50:56.764Z,60.10
2019-05-20T10:53:28.254Z,55.90
2019-05-20T10:55:55.495Z,54.70
2019-05-20T10:58:24.059Z,57.50
2019-05-20T11:01:02.485Z,59.20
2019-05-20T11:03:22.698Z,58.40
2019-05-20T11:05:51.162Z,58.10
2019-05-20T11:08:19.658Z,57.50
2019-05-20T11:10:48.226Z,57.70
2019-05-20T11:13:16.850Z,56.10
2019-05-20T11:15:45.404Z,55.50
2019-05-20T11:18:13.928Z,56.10
2019-05-20T11:20:42.447Z,57.00
2019-05-20T11:23:10.880Z,54.10
2019-05-20T11:25:39.347Z,57.20
2019-05-20T11:28:11.705Z,60.00
2019-05-20T11:30:38.095Z,60.70
2019-05-20T11:33:06.524Z,61.20
2019-05-20T11:35:36.669Z,62.00
2019-05-20T11:38:05.133Z,61.60
2019-05-20T11:40:33.847Z,61.50
2019-05-20T11:43:02.260Z,61.10
2019-05-20T11:45:30.795Z,61.30
2019-05-20T11:47:59.238Z,63.00
2019-05-20T11:50:27.674Z,63.70
2019-05-20T11:52:56.123Z,64.40
2019-05-20T11:55:24.584Z,63.60
2019-05-20T11:57:53.175Z,65.30
2019-05-20T12:00:21.876Z,65.80
2019-05-20T12:02:50.309Z,66.40
2019-05-20T12:05:19.441Z,68.20
2019-05-20T12:07:47.877Z,69.70
2019-05-20T12:10:17.618Z,70.60
2019-05-20T12:12:46.332Z,73.20
2019-05-20T12:15:16.846Z,74.60
2019-05-20T12:17:45.319Z,73.10
2019-05-20T12:20:14.325Z,74.20
2019-05-20T12:22:42.901Z,76.50
2019-05-20T12:25:11.677Z,77.50
2019-05-20T12:27:40.135Z,78.80
2019-05-20T12:30:09.561Z,78.80
2019-05-20T12:32:38.192Z,79.60
2019-05-20T12:35:08.180Z,79.30
2019-05-20T12:37:36.820Z,81.20
2019-05-20T12:40:08.294Z,80.50
2019-05-20T12:42:38.794Z,81.50
2019-05-20T12:45:09.264Z,80.60
2019-05-20T12:47:37.977Z,81.30
2019-05-20T12:50:07.103Z,81.20
2019-05-20T12:52:35.761Z,80.10
2019-05-20T12:55:09.097Z,80.90
2019-05-20T12:57:36.572Z,81.00
2019-05-20T13:00:13.553Z,81.40
2019-05-20T13:02:43.005Z,82.70
2019-05-20T13:05:13.414Z,83.00
2019-05-20T13:07:41.978Z,82.20
2019-05-20T13:10:28.253Z,81.30
2019-05-20T13:12:41.479Z,80.50
2019-05-20T13:15:11.527Z,80.90
2019-05-20T13:17:44.268Z,80.90
2019-05-20T13:20:10.815Z,81.40
2019-05-20T13:22:39.265Z,81.50
2019-05-20T13:25:08.581Z,80.90
2019-05-20T13:27:37.055Z,80.60
2019-05-20T13:30:07.569Z,81.50
2019-05-20T13:32:36.005Z,79.60
2019-05-20T13:35:06.795Z,77.40
2019-05-20T13:37:35.279Z,79.40
2019-05-20T13:40:07.896Z,80.00
2019-05-20T13:42:36.610Z,78.30
2019-05-20T13:45:06.609Z,78.60
2019-05-20T13:47:35.113Z,78.40
2019-05-20T13:50:06.499Z,75.50
2019-05-20T13:52:34.919Z,79.20
2019-05-20T13:55:05.322Z,75.50
2019-05-20T13:57:33.751Z,73.90
2019-05-20T14:00:02.248Z,68.10
2019-05-20T14:02:30.756Z,71.90
2019-05-20T14:04:59.243Z,70.80
2019-05-20T14:07:27.680Z,72.50
2019-05-20T14:09:56.153Z,71.60
2019-05-20T14:12:24.654Z,71.00
2019-05-20T14:14:53.113Z,68.30
2019-05-20T14:17:23.080Z,68.50
2019-05-20T14:19:51.532Z,70.60
2019-05-20T14:22:19.955Z,72.40
2019-05-20T14:24:48.385Z,71.20
2019-05-20T14:27:16.888Z,71.50
2019-05-20T14:29:45.340Z,71.60
2019-05-20T14:32:13.863Z,68.40
2019-05-20T14:34:42.317Z,67.50
2019-05-20T14:37:10.827Z,68.40
2019-05-20T14:39:39.315Z,69.90
2019-05-20T14:42:07.832Z,68.20
2019-05-20T14:44:36.269Z,68.10
2019-05-20T14:47:04.707Z,70.00
2019-05-20T14:49:33.232Z,71.60
2019-05-20T14:52:01.848Z,68.30
2019-05-20T14:54:30.354Z,67.70
2019-05-20T14:56:58.794Z,68.00
2019-05-20T14:59:27.400Z,71.80
2019-05-20T15:01:57.415Z,69.00
2019-05-20T15:04:25.842Z,69.90
2019-05-20T15:06:54.307Z,69.40
2019-05-20T15:09:22.800Z,68.20
2019-05-20T15:11:51.264Z,70.10
2019-05-20T15:14:19.687Z,63.90
2019-05-20T15:16:48.170Z,67.30
2019-05-20T15:19:16.700Z,67.70
2019-05-20T15:21:45.217Z,65.50
2019-05-20T15:24:13.753Z,67.80
2019-05-20T15:26:42.340Z,66.30
2019-05-20T15:29:27.063Z,67.70
2019-05-20T15:31:41.085Z,66.80
2019-05-20T15:34:09.503Z,69.60
2019-05-20T15:36:37.954Z,69.90
2019-05-20T15:39:07.193Z,71.40
2019-05-20T15:41:35.762Z,70.00
2019-05-20T15:44:04.574Z,70.80
2019-05-20T15:46:34.610Z,68.50
2019-05-20T15:49:03.061Z,67.80
2019-05-20T15:51:31.508Z,68.20
2019-05-20T15:54:00.115Z,68.20
2019-05-20T15:56:28.537Z,67.70
2019-05-20T15:58:57.054Z,68.40
2019-05-20T16:01:25.519Z,67.90
2019-05-20T16:03:53.980Z,67.60
2019-05-20T16:06:22.426Z,67.60
2019-05-20T16:08:52.492Z,68.10
2019-05-20T16:11:20.935Z,69.60
2019-05-20T16:13:49.452Z,69.40
2019-05-20T16:16:19.555Z,70.20
2019-05-20T16:18:48.073Z,71.40
2019-05-20T16:21:16.585Z,71.00
2019-05-20T16:23:45.045Z,71.20
2019-05-20T16:26:13.488Z,70.90
2019-05-20T16:28:41.959Z,70.80
2019-05-20T16:31:10.470Z,71.80
2019-05-20T16:33:39.076Z,72.60
2019-05-20T16:36:08.162Z,72.70
2019-05-20T16:38:36.726Z,72.00
2019-05-20T16:41:05.360Z,74.20
2019-05-20T16:43:33.994Z,76.00
2019-05-20T16:46:02.606Z,76.30
2019-05-20T16:48:31.025Z,77.30
2019-05-20T16:50:59.490Z,77.70
2019-05-20T16:53:27.990Z,78.30
2019-05-20T16:55:56.680Z,81.00
2019-05-20T16:58:25.109Z,82.00
2019-05-20T17:00:53.666Z,82.30
2019-05-20T17:03:22.167Z,83.20
2019-05-20T17:05:50.659Z,83.60
2019-05-20T17:08:19.188Z,83.90
2019-05-20T17:10:47.736Z,84.40
2019-05-20T17:13:16.147Z,85.40
2019-05-20T17:15:44.661Z,84.60
2019-05-20T17:18:13.166Z,84.70
2019-05-20T17:20:45.791Z,84.80
2019-05-20T17:23:11.938Z,84.30
2019-05-20T17:25:42.469Z,83.70
2019-05-20T17:28:10.907Z,83.70
2019-05-20T17:30:45.535Z,83.90
2019-05-20T17:33:09.818Z,83.70
2019-05-20T17:35:38.552Z,83.40
2019-05-20T17:38:07.178Z,84.00
2019-05-20T17:40:35.816Z,85.00
2019-05-20T17:43:04.569Z,85.00
2019-05-20T17:45:34.566Z,84.80
2019-05-20T17:48:03.186Z,84.30
2019-05-20T17:50:32.067Z,84.90
2019-05-20T17:53:00.546Z,85.50
2019-05-20T17:55:29.825Z,86.00
2019-05-20T17:57:58.712Z,86.40
2019-05-20T18:00:27.274Z,86.10
2019-05-20T18:02:55.743Z,86.30
2019-05-20T18:05:25.736Z,86.40
2019-05-20T18:07:54.251Z,86.70
2019-05-20T18:10:24.372Z,87.00
2019-05-20T18:12:53.100Z,87.40
2019-05-20T18:15:21.874Z,87.60
2019-05-20T18:17:53.023Z,88.00
2019-05-20T18:20:21.667Z,88.40
2019-05-20T18:22:50.377Z,88.70
2019-05-20T18:25:18.908Z,88.60
2019-05-20T18:27:47.399Z,88.70
2019-05-20T18:30:17.707Z,88.40
2019-05-20T18:32:46.875Z,88.30
2019-05-20T18:35:15.527Z,88.40
2019-05-20T18:37:44.224Z,88.00
2019-05-20T18:40:15.081Z,87.80
2019-05-20T18:42:43.891Z,87.50
2019-05-20T18:45:12.508Z,87.20
2019-05-20T18:47:40.950Z,87.20
2019-05-20T18:50:10.122Z,87.50
2019-05-20T18:52:38.698Z,87.60
2019-05-20T18:55:07.574Z,87.90
2019-05-20T18:57:36.100Z,87.60
2019-05-20T19:00:08.324Z,87.50
2019-05-20T19:02:36.811Z,87.60
2019-05-20T19:05:07.333Z,87.40
2019-05-20T19:07:35.841Z,87.40
2019-05-20T19:10:06.631Z,87.60
2019-05-20T19:12:35.049Z,87.70
2019-05-20T19:15:04.609Z,87.30
2019-05-20T19:17:33.077Z,87.20
2019-05-20T19:20:01.620Z,87.30
2019-05-20T19:22:30.214Z,87.40
2019-05-20T19:24:58.686Z,87.70
2019-05-20T19:27:27.148Z,87.90
2019-05-20T19:29:55.696Z,88.20
2019-05-20T19:32:24.441Z,88.20
2019-05-20T19:34:53.032Z,88.30
2019-05-20T19:37:21.460Z,88.00
2019-05-20T19:39:49.952Z,88.00
2019-05-20T19:42:18.561Z,87.50
2019-05-20T19:44:47.102Z,87.30
2019-05-20T19:47:15.619Z,87.30
2019-05-20T19:49:44.106Z,87.20
2019-05-20T19:52:12.555Z,87.70
2019-05-20T19:54:41.011Z,87.90
2019-05-20T19:57:09.477Z,88.00
2019-05-20T19:59:38.031Z,88.20
2019-05-20T20:02:16.808Z,88.50
2019-05-20T20:04:36.950Z,88.80
2019-05-20T20:07:05.559Z,88.60
2019-05-20T20:09:34.062Z,88.30
2019-05-20T20:12:02.596Z,87.80
2019-05-20T20:14:31.105Z,87.70
2019-05-20T20:16:59.574Z,87.90
2019-05-20T20:19:28.084Z,87.80
2019-05-20T20:21:56.538Z,88.10
2019-05-20T20:24:25.053Z,88.30
2019-05-20T20:26:53.604Z,88.20
2019-05-20T20:29:23.834Z,88.30
2019-05-20T20:31:52.454Z,88.60
2019-05-20T20:34:20.986Z,88.80
2019-05-20T20:36:49.431Z,89.00
2019-05-20T20:39:17.924Z,88.80
2019-05-20T20:41:46.387Z,88.90
2019-05-20T20:44:14.890Z,89.00
2019-05-20T20:46:43.419Z,89.20
2019-05-20T20:49:14.739Z,89.20
2019-05-20T20:51:42.932Z,89.40
2019-05-20T20:54:11.355Z,89.40
2019-05-20T20:56:39.864Z,89.50
2019-05-20T20:59:09.479Z,89.60
2019-05-20T21:01:38.043Z,89.60
2019-05-20T21:04:08.022Z,89.60
2019-05-20T21:06:36.523Z,89.30
2019-05-20T21:09:06.425Z,89.00
2019-05-20T21:11:34.853Z,88.80
2019-05-20T21:14:03.310Z,88.80
2019-05-20T21:16:31.726Z,88.80
2019-05-20T21:19:01.833Z,88.70
2019-05-20T21:21:31.958Z,88.80
2019-05-20T21:24:00.432Z,88.60
2019-05-20T21:26:30.414Z,88.60
2019-05-20T21:28:58.875Z,88.80
2019-05-20T21:31:27.303Z,88.70
2019-05-20T21:33:55.832Z,88.70
2019-05-20T21:36:24.276Z,88.80
2019-05-20T21:38:52.730Z,88.70
2019-05-20T21:41:21.234Z,88.60
2019-05-20T21:43:49.688Z,88.80
2019-05-20T21:46:18.123Z,88.80
2019-05-20T21:48:48.110Z,88.70
2019-05-20T21:51:16.543Z,88.60
2019-05-20T21:53:45.002Z,88.80
2019-05-20T21:56:15.152Z,88.70
2019-05-20T21:58:43.629Z,88.70
2019-05-20T22:01:12.242Z,88.60
2019-05-20T22:03:40.731Z,88.60
2019-05-20T22:06:09.145Z,88.70
2019-05-20T22:08:37.570Z,88.80
2019-05-20T22:11:06.138Z,88.90
2019-05-20T22:13:34.726Z,89.00
2019-05-20T22:16:03.416Z,89.00
2019-05-20T22:18:31.915Z,89.30
2019-05-20T22:21:00.438Z,89.30
2019-05-20T22:23:39.931Z,89.20
2019-05-20T22:26:08.382Z,89.20
2019-05-20T22:28:36.820Z,89.30
2019-05-20T22:31:05.385Z,89.40
2019-05-20T22:33:41.633Z,89.40
2019-05-20T22:36:04.067Z,89.50
2019-05-20T22:38:34.040Z,89.50
2019-05-20T22:41:02.490Z,89.50
2019-05-20T22:43:30.996Z,89.50
2019-05-20T22:45:59.444Z,89.60
2019-05-20T22:48:27.943Z,89.70
2019-05-20T22:50:56.403Z,89.70
2019-05-20T22:53:24.843Z,89.60
2019-05-20T22:55:53.289Z,89.70
2019-05-20T22:58:21.742Z,89.70
2019-05-20T23:00:50.277Z,89.60
2019-05-20T23:03:19.077Z,89.60
2019-05-20T23:05:47.505Z,89.50
2019-05-20T23:08:16.025Z,89.50
2019-05-20T23:10:44.559Z,89.40
2019-05-20T23:13:12.998Z,89.40
2019-05-20T23:15:41.510Z,89.30
2019-05-20T23:18:10.053Z,89.20
2019-05-20T23:20:38.539Z,89.20
2019-05-20T23:23:08.747Z,89.10
2019-05-20T23:25:37.165Z,89.10
2019-05-20T23:28:05.619Z,89.20
2019-05-20T23:30:34.055Z,89.20
2019-05-20T23:33:02.507Z,89.30
2019-05-20T23:35:30.934Z,89.40
2019-05-20T23:37:59.490Z,89.20
2019-05-20T23:40:27.922Z,89.10
2019-05-20T23:42:56.376Z,89.20
2019-05-20T23:45:24.822Z,89.30
2019-05-20T23:47:53.491Z,89.40
2019-05-20T23:50:21.918Z,89.20
2019-05-20T23:52:50.378Z,89.00
2019-05-20T23:55:18.932Z,88.80
2019-05-20T23:57:47.398Z,88.70
